Aérodrome :
LOGIN :

S'inscrire | Disclaimer

   EN    FR    IT 

 










Légende :    VFR   VFR Marginal   IFR   IFR Intensif   IFR Très Intensif
Visi : 
Plafond : 
>= 8 km
>= 3000ft
5 à 8 km
1000 à 3000 ft
1500m à 5 km
500 à 1000 ft
800 à 1500m
200 à 500 ft
< 800m
< 200 ft
Symboles :   Orages  Brouillard  Fortes neiges  Fortes précipitations  Vent > 20 kt
SIGMETs :   Divers  Orages  Givrage  Turbulence  Onde Orograph.  Cendres Volcan.






- Altitude de l'aérodrome : 218 ft
- Code IATA : LBG


LFPB - Paris / Le Bourget

DERNIER METAR :
  • 041600Z AUTO VRB03KT CAVOK 21/10 Q1011 TEMPO 4000 -SHRA SCT020TCU

METARs EXPIRÉS :
  • 041530Z AUTO 10003KT 040V140 9999 FEW041 BKN058 BKN110 21/10 Q1012 TEMPO 4000 -SHRA SCT020TCU
  • 041500Z AUTO 07004KT 020V150 9999 FEW040 BKN160 21/11 Q1012 TEMPO 4000 -SHRA SCT020TCU
  • 041430Z AUTO VRB03KT 9999 FEW039 SCT120 BKN150 20/11 Q1012 TEMPO 4000 -SHRA SCT020TCU
  • 041400Z AUTO 17005KT 110V220 9999 FEW039 BKN140 20/12 Q1012 TEMPO 4000 -SHRA SCT020TCU
  • 041330Z AUTO 15007KT 110V210 9999 FEW036/// BKN100/// BKN130/// ///TCU 20/12 Q1012 TEMPO 4000 -SHRA

TAF TAF LFPB
Valide du 04 à 12h jusqu'au 05 à 12h UTC


041100Z 0412/0512 15005KT 9999 BKN040
PROB40
TEMPO 0412/0418 4000 -SHRA SCT020TCU
PROB30 0505/0506 4000 BR
BECMG 0510/0512 22010KT
ATIS : +33 1 48 62 43 92



MET'MAP, la Météo Aéronautique d'un coup d'oeil ! - Copyright ORBIFLY Décembre 2007 - Disclaimer

ORBIFLY MET'MAP TEAM :

Programmation & Développement : Alexandra Zaïnal
Sur une idée originale de : Baudouin d'Aumeries
Assistance à la programmation : Marc-Olivier Méhu
Soutien technique & logistique : Manuel Goepfert

Contact : metmap@orbifly.com




SOURCES & CREDITS :

   NOAA